If you wish to contribute or participate in the discussions about articles you are invited to join SKYbrary as a registered user

 Actions

Ain Arnat Airport

From SKYbrary Wiki

DAAS
Airport
ICAO: DAAS – IATA: QSF
Summary
Name Ain Arnat Airport
Region Africa
Territory Algeria DZ.gif
Location , Setif
Serving Setif
Elevation 1,024.128 m
3,360 ft
3,360 ft1,024.128 m
Type medium airport
Coordinates 36° 10' 41.16", 5° 19' 28.164"


METAR
Observation DAAS 131300Z 28008KT 9999 FEW010 BKN030 10/02 Q1026
Station Setif
Date/Time 13 December 2017 13:00:00
Wind direction 280°
Wind speed 08 kts
Lowest cloud amount few clouds
Temperature 10°C
Dew point 2°C
Humidity 57%
QNH 1026 hPa
Weather condition n/a